Time;durP1;ratioP1;P1;durP2;ratioP2;P2;SDS_P1;SDS_P2;PMS_P1;PMS_P2;Temp;Humidity;BMP_temperature;BMP_pressure;BME280_temperature;BME280_humidity;BME280_pressure;Samples;Min_cycle;Max_cycle;Signal;HPM_P1;HPM_P2
2022/09/10 00:02:28;;;;;;;14.10;7.23;;;;;;;20.01;76.32;100580.14;125174;1102;104657;-80
2022/09/10 00:05:01;;;;;;;13.13;7.23;;;;;;;20.03;76.06;100585.47;125569;1098;103062;-79
2022/09/10 00:07:33;;;;;;;11.33;7.10;;;;;;;20.03;75.82;100580.14;125427;1099;102731;-80
2022/09/10 00:10:04;;;;;;;11.90;7.30;;;;;;;20.05;75.83;100584.56;125684;1099;104274;-79
2022/09/10 00:12:36;;;;;;;12.53;7.47;;;;;;;20.04;76.14;100585.47;125686;1099;104176;-80
2022/09/10 00:15:09;;;;;;;16.13;8.00;;;;;;;20.05;76.66;100581.89;125730;1099;102191;-79
2022/09/10 00:17:40;;;;;;;14.20;7.33;;;;;;;20.04;75.99;100576.57;125278;1099;104184;-79
2022/09/10 00:20:12;;;;;;;14.23;7.10;;;;;;;20.02;76.49;100576.58;125067;1099;104176;-79
2022/09/10 00:22:44;;;;;;;11.73;7.30;;;;;;;20.02;75.97;100573.91;125026;1102;104175;-79
2022/09/10 00:25:15;;;;;;;14.20;7.33;;;;;;;20.00;76.25;100570.38;125091;1099;104172;-79
2022/09/10 00:27:47;;;;;;;15.30;7.87;;;;;;;19.98;75.97;100569.50;125699;1099;104175;-79
2022/09/10 00:30:19;;;;;;;14.20;7.93;;;;;;;19.96;77.19;100567.72;125095;1099;104250;-80
2022/09/10 00:32:51;;;;;;;13.13;7.53;;;;;;;19.92;77.12;100566.84;125728;1099;102434;-78
2022/09/10 00:35:23;;;;;;;12.33;7.27;;;;;;;19.88;77.91;100554.41;125670;1099;102282;-79
2022/09/10 00:37:55;;;;;;;12.77;7.60;;;;;;;19.83;77.24;100558.87;125669;1099;104245;-79
2022/09/10 00:40:27;;;;;;;13.23;7.77;;;;;;;19.81;77.96;100568.64;125731;1099;102646;-79
2022/09/10 00:43:02;;;;;;;14.00;7.97;;;;;;;19.79;77.93;100555.34;125738;1099;104695;-79
2022/09/10 00:45:34;;;;;;;13.33;7.30;;;;;;;19.79;77.78;100559.75;125684;1098;104181;-79
2022/09/10 00:48:12;;;;;;;13.73;8.07;;;;;;;19.77;78.69;100550.89;125144;1102;104159;-80
2022/09/10 00:50:45;;;;;;;12.47;7.83;;;;;;;19.78;78.71;100558.00;125079;1099;104207;-79
2022/09/10 00:53:22;;;;;;;14.55;7.62;;;;;;;19.73;78.72;100560.63;125780;1099;104261;-79
2022/09/10 00:55:55;;;;;;;11.10;7.23;;;;;;;19.69;78.89;100565.05;125732;1099;102777;-79
2022/09/10 00:58:25;;;;;;;;;;;;;;;19.63;80.18;100559.73;125188;1098;104188;-79
2022/09/10 01:01:01;;;;;;;9.23;6.10;;;;;;;19.61;79.16;100550.88;125073;1099;102794;-79
2022/09/10 01:03:33;;;;;;;10.90;6.10;;;;;;;19.56;79.64;100555.31;125021;1102;102290;-79
2022/09/10 01:06:05;;;;;;;8.80;5.83;;;;;;;19.53;79.31;100550.88;125030;1099;104165;-79
2022/09/10 01:08:36;;;;;;;8.93;5.57;;;;;;;19.53;79.12;100542.02;125107;1099;103039;-79
2022/09/10 01:11:19;;;;;;;8.93;5.40;;;;;;;19.48;79.14;100547.33;125022;1099;102738;-79
2022/09/10 01:14:06;;;;;;;8.35;5.40;;;;;;;19.43;78.93;100546.45;124937;1102;102748;-79
2022/09/10 01:16:45;;;;;;;8.37;5.90;;;;;;;19.39;79.04;100542.89;124303;1099;104217;-79
2022/09/10 01:19:46;;;;;;;9.87;5.70;;;;;;;19.37;79.32;100544.67;124245;1099;104225;-79
2022/09/10 01:22:31;;;;;;;11.73;6.10;;;;;;;19.34;79.05;100542.01;124350;1102;104214;-79
2022/09/10 01:25:13;;;;;;;10.27;5.50;;;;;;;19.34;78.60;100543.80;125008;1099;104153;-79
2022/09/10 01:27:47;;;;;;;10.33;5.83;;;;;;;19.34;78.83;100547.33;125996;1099;102165;-79
2022/09/10 01:30:23;;;;;;;10.37;6.23;;;;;;;19.32;79.84;100550.86;125144;1099;104265;-78
2022/09/10 01:33:09;;;;;;;8.23;5.57;;;;;;;19.31;78.98;100547.33;125018;1102;102158;-79
2022/09/10 01:35:50;;;;;;;11.73;6.10;;;;;;;19.29;79.46;100543.79;125731;1099;104142;-78
2022/09/10 01:38:27;;;;;;;10.23;6.27;;;;;;;19.29;79.61;100533.15;124826;1099;104200;-77
2022/09/10 01:41:00;;;;;;;9.73;6.07;;;;;;;19.31;79.88;100528.70;124322;1099;104265;-78
2022/09/10 01:43:35;;;;;;;9.80;6.07;;;;;;;19.31;80.09;100531.36;124311;1100;104523;-78
2022/09/10 01:46:19;;;;;;;10.77;6.00;;;;;;;19.32;80.00;100533.16;124407;1099;104201;-77
2022/09/10 01:49:05;;;;;;;9.27;5.87;;;;;;;19.33;79.51;100531.36;124383;1102;101877;-77
2022/09/10 01:51:51;;;;;;;10.60;6.57;;;;;;;19.34;79.58;100536.69;124376;1098;104335;-78
2022/09/10 01:54:38;;;;;;;9.93;6.07;;;;;;;19.36;79.78;100531.36;124454;1101;102781;-78
2022/09/10 01:57:29;;;;;;;12.70;6.83;;;;;;;19.36;80.17;100529.58;124385;1099;104278;-78
2022/09/10 02:00:09;;;;;;;13.27;7.30;;;;;;;19.34;80.52;100520.72;124619;1099;104153;-77
2022/09/10 02:02:48;;;;;;;;;;;;;;;19.31;82.57;100526.05;124418;1099;104201;-78
2022/09/10 02:05:22;;;;;;;12.80;7.37;;;;;;;19.33;81.34;100515.41;124339;1102;103653;-78
2022/09/10 02:08:02;;;;;;;13.40;8.07;;;;;;;19.33;80.77;100518.94;124374;1102;102945;-79
2022/09/10 02:10:35;;;;;;;15.20;8.40;;;;;;;19.34;81.33;100517.19;125074;1098;104210;-78
2022/09/10 02:13:11;;;;;;;13.83;8.47;;;;;;;19.35;81.31;100514.52;124409;1099;104242;-78
2022/09/10 02:15:53;;;;;;;14.77;8.80;;;;;;;19.38;81.29;100521.60;124390;1099;102845;-78
2022/09/10 02:18:28;;;;;;;12.77;8.10;;;;;;;19.40;80.94;100514.52;124356;1099;104228;-78
2022/09/10 02:21:01;;;;;;;15.30;8.93;;;;;;;19.43;81.48;100513.62;125180;1099;102705;-78
2022/09/10 02:23:39;;;;;;;13.87;8.40;;;;;;;19.44;81.41;100507.42;125802;1099;104060;-79
2022/09/10 02:26:10;;;;;;;15.50;8.97;;;;;;;19.45;81.93;100507.42;125792;1099;104163;-78
2022/09/10 02:28:48;;;;;;;15.20;9.07;;;;;;;19.44;81.90;100505.63;125169;1102;104262;-78
2022/09/10 02:31:19;;;;;;;13.80;8.50;;;;;;;19.45;81.53;100496.77;125124;1102;109366;-78
2022/09/10 02:33:50;;;;;;;13.57;8.77;;;;;;;19.46;81.91;100493.23;125764;1099;103283;-78
2022/09/10 02:36:24;;;;;;;15.23;9.40;;;;;;;19.46;81.63;100490.58;124472;1102;104766;-78
2022/09/10 02:38:57;;;;;;;13.77;8.37;;;;;;;19.47;82.40;100491.45;125843;1099;102287;-77
2022/09/10 02:41:32;;;;;;;15.13;9.17;;;;;;;19.48;82.32;100502.09;124479;1099;102561;-79
2022/09/10 02:44:05;;;;;;;12.53;8.67;;;;;;;19.49;81.95;100498.52;124924;1099;102852;-79
2022/09/10 02:46:37;;;;;;;13.30;8.60;;;;;;;19.50;82.47;100500.31;125804;1099;102660;-78
2022/09/10 02:49:09;;;;;;;15.90;8.73;;;;;;;19.51;82.37;100507.41;125210;1099;102406;-78
2022/09/10 02:51:41;;;;;;;;;;;;;;;19.50;82.00;100499.43;125111;1099;102849;-79
2022/09/10 02:54:12;;;;;;;16.90;8.23;;;;;;;19.50;82.50;100505.63;125226;1099;104166;-80
2022/09/10 02:56:43;;;;;;;14.40;8.63;;;;;;;19.48;82.36;100496.77;125193;1102;104323;-78
2022/09/10 02:59:16;;;;;;;15.60;9.20;;;;;;;19.48;82.41;100496.77;124427;1099;104105;-78
2022/09/10 03:01:48;;;;;;;12.60;8.30;;;;;;;19.48;83.00;100490.58;125123;1099;104233;-79
2022/09/10 03:04:19;;;;;;;13.60;8.13;;;;;;;19.45;83.18;100491.45;125109;1099;102127;-78
2022/09/10 03:06:52;;;;;;;14.97;8.57;;;;;;;19.44;82.72;100494.11;125088;1102;104322;-79
2022/09/10 03:09:27;;;;;;;12.07;8.20;;;;;;;19.42;83.15;100491.45;124384;1102;104157;-79
2022/09/10 03:11:59;;;;;;;12.40;8.37;;;;;;;19.39;83.43;100486.14;125127;1102;104220;-78
2022/09/10 03:14:30;;;;;;;16.53;8.70;;;;;;;19.38;83.46;100489.67;125774;1099;104176;-78
2022/09/10 03:17:03;;;;;;;13.37;8.70;;;;;;;19.35;84.22;100489.67;125150;1102;104229;-79
2022/09/10 03:19:34;;;;;;;15.40;8.70;;;;;;;19.33;84.62;100486.14;125214;1102;104294;-79
2022/09/10 03:22:06;;;;;;;12.63;8.70;;;;;;;19.32;84.21;100490.58;125157;1099;104085;-78
2022/09/10 03:24:37;;;;;;;14.37;9.10;;;;;;;19.31;84.37;100477.28;125069;1099;104226;-79
2022/09/10 03:27:10;;;;;;;14.83;9.43;;;;;;;19.30;85.13;100475.50;125587;1102;101837;-79
2022/09/10 03:29:41;;;;;;;16.70;9.60;;;;;;;19.29;85.25;100479.94;125140;1102;104181;-79
2022/09/10 03:32:12;;;;;;;17.57;9.57;;;;;;;19.30;84.37;100472.84;125066;1099;103058;-79
2022/09/10 03:34:44;;;;;;;14.65;9.55;;;;;;;19.29;85.13;100471.96;125175;1099;104160;-79
2022/09/10 03:37:17;;;;;;;13.40;9.00;;;;;;;19.28;85.20;100478.16;125899;1099;101796;-79
2022/09/10 03:39:48;;;;;;;15.18;9.23;;;;;;;19.30;85.40;100478.16;125205;1099;102845;-79
2022/09/10 03:42:20;;;;;;;13.43;8.73;;;;;;;19.30;85.49;100492.34;125181;1099;104166;-79
2022/09/10 03:44:51;;;;;;;15.47;9.60;;;;;;;19.31;84.94;100482.60;125132;1099;104210;-79
2022/09/10 03:47:22;;;;;;;14.23;8.97;;;;;;;19.32;85.08;100479.94;124352;1099;104618;-79
2022/09/10 03:49:54;;;;;;;14.87;9.37;;;;;;;19.32;85.82;100485.27;125057;1102;104184;-79
2022/09/10 03:52:25;;;;;;;14.73;9.47;;;;;;;19.33;85.78;100484.35;125229;1099;102755;-79
2022/09/10 03:54:56;;;;;;;17.20;9.00;;;;;;;19.34;85.86;100479.94;125235;1099;104229;-79
2022/09/10 03:57:28;;;;;;;13.13;8.87;;;;;;;19.36;85.74;100486.14;125172;1099;101951;-79
2022/09/10 03:59:59;;;;;;;16.37;9.60;;;;;;;19.39;85.50;100499.44;125232;1099;104258;-79
2022/09/10 04:02:30;;;;;;;15.20;9.57;;;;;;;19.40;85.74;100488.80;125122;1099;104041;-79
2022/09/10 04:05:01;;;;;;;16.50;9.37;;;;;;;19.42;85.78;100490.58;125380;1099;102059;-79
2022/09/10 04:07:33;;;;;;;15.53;9.50;;;;;;;19.44;85.95;100486.13;125153;1099;101876;-78
2022/09/10 04:10:06;;;;;;;17.70;9.43;;;;;;;19.44;85.38;100478.15;124329;1102;104226;-77
2022/09/10 04:12:38;;;;;;;15.72;9.73;;;;;;;19.44;86.08;100483.47;124525;1099;104261;-78
2022/09/10 04:15:12;;;;;;;16.17;9.33;;;;;;;19.44;85.46;100476.36;124387;1102;102784;-78
2022/09/10 04:17:44;;;;;;;15.40;9.20;;;;;;;19.45;86.12;100480.81;124361;1099;104265;-78
2022/09/10 04:20:15;;;;;;;17.07;9.40;;;;;;;19.45;86.58;100474.61;125150;1100;104615;-78
2022/09/10 04:22:47;;;;;;;14.97;9.73;;;;;;;19.44;86.48;100473.70;124506;1099;104216;-78
2022/09/10 04:25:20;;;;;;;17.20;9.33;;;;;;;19.46;86.51;100479.93;124356;1102;104392;-78
2022/09/10 04:27:52;;;;;;;18.90;9.40;;;;;;;19.46;86.71;100481.69;125218;1099;104197;-78
2022/09/10 04:30:23;;;;;;;16.93;9.67;;;;;;;19.46;86.87;100476.36;125122;1099;102894;-78
2022/09/10 04:32:55;;;;;;;14.20;9.50;;;;;;;19.49;85.93;100479.89;125069;1099;104223;-78
2022/09/10 04:35:26;;;;;;;16.77;9.87;;;;;;;19.51;86.68;100482.55;125805;1099;104274;-79
2022/09/10 04:37:57;;;;;;;18.47;9.73;;;;;;;19.53;86.46;100480.80;125195;1099;104162;-79
2022/09/10 04:40:29;;;;;;;15.33;9.40;;;;;;;19.54;86.38;100482.55;125381;1099;104294;-80
2022/09/10 04:43:01;;;;;;;15.20;9.20;;;;;;;19.55;86.65;100479.02;125090;1100;104207;-79
2022/09/10 04:45:33;;;;;;;15.40;9.73;;;;;;;19.56;86.21;100488.78;125211;1099;102269;-80
2022/09/10 04:48:05;;;;;;;15.53;9.73;;;;;;;19.57;86.61;100488.78;125172;1102;104227;-80
2022/09/10 04:50:39;;;;;;;16.70;9.27;;;;;;;19.59;86.84;100483.45;125124;1099;102749;-80
2022/09/10 04:53:21;;;;;;;17.13;10.57;;;;;;;19.61;86.87;100496.76;125203;1102;102144;-81
2022/09/10 04:55:57;;;;;;;16.07;9.20;;;;;;;19.61;87.38;100492.31;125118;1099;104184;-79
2022/09/10 04:58:28;;;;;;;16.47;9.03;;;;;;;19.61;86.44;100499.42;125280;1099;104188;-80
2022/09/10 05:01:00;;;;;;;13.47;8.57;;;;;;;19.60;86.80;100494.98;125190;1099;104232;-79
2022/09/10 05:03:32;;;;;;;14.25;8.73;;;;;;;19.63;86.98;100505.63;125046;1102;102299;-80
2022/09/10 05:06:04;;;;;;;13.20;8.95;;;;;;;19.67;86.95;100497.63;125064;1099;104175;-79
2022/09/10 05:08:36;;;;;;;15.10;9.20;;;;;;;19.70;86.36;100494.09;125043;1099;104294;-79
2022/09/10 05:11:09;;;;;;;14.80;8.20;;;;;;;19.71;87.41;100499.41;125160;1102;104348;-79
2022/09/10 05:13:41;;;;;;;14.77;8.17;;;;;;;19.72;87.19;100501.16;125169;1099;103029;-79
2022/09/10 05:16:12;;;;;;;12.70;7.80;;;;;;;19.73;87.38;100488.75;125064;1099;104223;-78
2022/09/10 05:18:43;;;;;;;12.70;7.67;;;;;;;19.74;87.67;100488.75;124379;1102;104169;-79
2022/09/10 05:21:16;;;;;;;12.43;7.80;;;;;;;19.75;86.98;100493.16;125166;1099;104210;-79
2022/09/10 05:23:48;;;;;;;13.50;7.40;;;;;;;19.75;87.16;100497.61;125084;1099;104168;-79
2022/09/10 05:26:19;;;;;;;12.37;7.37;;;;;;;19.76;87.56;100496.73;125142;1099;104191;-79
2022/09/10 05:28:52;;;;;;;11.90;7.73;;;;;;;19.78;87.06;100494.11;125140;1100;104267;-79
2022/09/10 05:31:24;;;;;;;12.25;7.55;;;;;;;19.79;86.83;100494.10;125117;1099;102749;-80
2022/09/10 05:33:58;;;;;;;14.57;7.37;;;;;;;19.80;87.33;100497.64;125078;1102;104203;-79
2022/09/10 05:36:30;;;;;;;13.45;7.22;;;;;;;19.82;87.43;100506.50;125129;1099;102852;-79
2022/09/10 05:39:03;;;;;;;13.23;7.47;;;;;;;19.85;88.02;100499.41;125210;1102;104238;-80
2022/09/10 05:41:36;;;;;;;15.60;7.57;;;;;;;19.86;87.55;100495.84;125777;1099;102262;-80
2022/09/10 05:44:07;;;;;;;15.07;7.50;;;;;;;19.88;87.35;100490.51;125188;1100;104405;-80
2022/09/10 05:46:39;;;;;;;10.63;7.03;;;;;;;19.89;87.75;100490.50;125262;1099;104181;-79
2022/09/10 05:49:15;;;;;;;14.30;7.15;;;;;;;19.91;87.76;100488.75;125111;1099;104204;-80
2022/09/10 05:51:47;;;;;;;14.43;7.97;;;;;;;19.93;87.89;100488.74;125062;1099;104271;-79
2022/09/10 05:54:18;;;;;;;15.03;8.23;;;;;;;19.96;88.06;100486.07;125144;1102;104168;-78
2022/09/10 05:56:50;;;;;;;14.50;9.17;;;;;;;19.97;88.87;100485.16;125142;1102;104293;-79
2022/09/10 05:59:24;;;;;;;13.10;8.57;;;;;;;19.96;88.70;100479.84;125782;1099;104169;-78
2022/09/10 06:01:56;;;;;;;15.23;8.57;;;;;;;19.96;88.03;100480.75;124598;1099;101927;-77
2022/09/10 06:04:28;;;;;;;12.87;8.40;;;;;;;19.97;88.47;100478.95;124413;1099;102771;-78
2022/09/10 06:07:01;;;;;;;15.13;9.10;;;;;;;19.98;88.86;100467.42;124341;1102;102797;-78
2022/09/10 06:09:33;;;;;;;16.90;8.63;;;;;;;19.96;89.26;100464.77;124483;1101;104124;-79
2022/09/10 06:12:09;;;;;;;15.87;9.03;;;;;;;19.95;88.81;100465.65;124375;1099;103046;-79
2022/09/10 06:14:40;;;;;;;16.07;9.37;;;;;;;19.95;88.28;100459.45;125096;1102;102822;-78
2022/09/10 06:17:12;;;;;;;14.97;9.43;;;;;;;19.95;89.00;100452.33;125091;1102;102334;-79
2022/09/10 06:19:45;;;;;;;15.33;8.77;;;;;;;19.98;89.49;100443.45;124994;1099;104157;-79
2022/09/10 06:22:16;;;;;;;16.93;9.70;;;;;;;20.01;89.20;100449.64;124463;1103;104166;-79
2022/09/10 06:24:54;;;;;;;18.40;10.50;;;;;;;20.03;89.73;100446.98;124646;1099;104281;-78
2022/09/10 06:27:24;;;;;;;;;;;;;;;20.05;89.23;100443.39;125418;1099;104271;-80
2022/09/10 06:29:56;;;;;;;13.47;8.23;;;;;;;20.09;90.77;100444.29;125285;1099;104253;-79
2022/09/10 06:32:28;;;;;;;17.20;9.50;;;;;;;20.09;89.70;100442.50;125189;1099;104342;-79
2022/09/10 06:35:00;;;;;;;15.93;9.67;;;;;;;20.13;89.14;100446.02;125763;1098;104258;-79
2022/09/10 06:37:33;;;;;;;16.53;9.70;;;;;;;20.15;91.02;100444.27;125584;1099;102164;-79
2022/09/10 06:40:09;;;;;;;16.83;9.33;;;;;;;20.18;90.51;100446.00;125874;1099;102804;-79
2022/09/10 06:42:41;;;;;;;16.83;9.53;;;;;;;20.20;91.57;100442.45;125266;1099;104168;-79
2022/09/10 06:45:18;;;;;;;16.80;9.43;;;;;;;20.23;89.92;100445.10;125765;1099;104297;-80
2022/09/10 06:48:05;;;;;;;17.65;9.25;;;;;;;20.31;90.42;100450.39;126455;1099;104239;-79
2022/09/10 06:50:53;;;;;;;16.47;9.47;;;;;;;20.38;90.59;100453.91;125783;1099;104220;-80
2022/09/10 06:53:29;;;;;;;16.75;10.15;;;;;;;20.44;89.57;100453.87;125837;1099;102751;-80
2022/09/10 06:56:01;;;;;;;17.07;9.60;;;;;;;20.48;89.76;100451.18;125861;1099;102950;-79
2022/09/10 06:58:35;;;;;;;19.77;9.47;;;;;;;20.53;90.20;100450.28;125744;1099;104153;-80
2022/09/10 07:01:13;;;;;;;14.40;9.57;;;;;;;20.56;90.54;100448.47;125781;1099;102141;-80
2022/09/10 07:03:48;;;;;;;16.73;10.00;;;;;;;20.60;90.76;100452.90;125282;1099;104252;-80
2022/09/10 07:06:21;;;;;;;15.87;9.73;;;;;;;20.63;90.72;100459.97;125835;1099;104192;-81
2022/09/10 07:08:59;;;;;;;17.67;9.77;;;;;;;20.65;90.72;100453.78;125770;1099;104250;-79
2022/09/10 07:11:34;;;;;;;20.00;10.20;;;;;;;20.69;90.06;100459.97;125074;1099;104163;-79
2022/09/10 07:14:07;;;;;;;15.63;9.30;;;;;;;20.71;90.69;100452.87;125912;1099;102120;-79
2022/09/10 07:16:40;;;;;;;16.73;9.63;;;;;;;20.76;90.56;100460.83;125166;1099;104207;-80
2022/09/10 07:19:13;;;;;;;16.17;9.73;;;;;;;20.85;90.31;100450.11;125166;1099;104230;-79
2022/09/10 07:21:48;;;;;;;17.50;9.37;;;;;;;20.99;89.95;100447.34;125209;1099;104239;-80
2022/09/10 07:24:20;;;;;;;13.87;8.70;;;;;;;21.10;89.81;100442.78;125736;1099;104203;-80
2022/09/10 07:27:03;;;;;;;14.27;8.03;;;;;;;21.15;90.50;100438.28;125742;1099;102196;-79
2022/09/10 07:29:34;;;;;;;15.10;7.13;;;;;;;21.24;89.40;100444.43;125240;1099;104328;-80
2022/09/10 07:32:06;;;;;;;13.53;7.43;;;;;;;21.32;89.78;100434.59;125219;1099;104357;-79
2022/09/10 07:34:37;;;;;;;12.47;6.37;;;;;;;21.41;90.35;100439.84;125703;1099;104169;-79
2022/09/10 07:37:09;;;;;;;10.57;6.23;;;;;;;21.44;90.08;100439.81;125129;1099;104380;-79
2022/09/10 07:39:41;;;;;;;14.63;6.13;;;;;;;21.47;90.15;100433.53;124416;1099;104153;-79
2022/09/10 07:42:13;;;;;;;9.83;5.60;;;;;;;21.49;89.15;100434.45;125202;1099;104194;-79
2022/09/10 07:44:45;;;;;;;10.10;5.90;;;;;;;21.53;89.63;100431.74;125195;1099;104197;-80
2022/09/10 07:47:17;;;;;;;10.77;5.30;;;;;;;21.54;89.08;100435.28;125189;1099;103110;-79
2022/09/10 07:49:51;;;;;;;11.43;5.50;;;;;;;21.60;88.99;100439.66;125827;1099;104185;-79
2022/09/10 07:52:22;;;;;;;14.73;5.42;;;;;;;21.63;89.02;100431.61;124467;1099;104251;-79
2022/09/10 07:54:57;;;;;;;13.60;5.43;;;;;;;21.69;88.56;100429.78;125150;1099;104211;-80
2022/09/10 07:57:30;;;;;;;11.13;4.93;;;;;;;21.75;88.62;100427.94;125788;1098;104172;-79
2022/09/10 08:00:02;;;;;;;11.37;5.73;;;;;;;21.78;89.10;100426.10;125294;1099;102670;-80
2022/09/10 08:02:45;;;;;;;;;;;;;;;21.85;88.22;100413.58;125784;1098;102771;-80
2022/09/10 08:05:20;;;;;;;9.10;4.97;;;;;;;22.00;88.32;100412.48;125239;1099;104175;-80
2022/09/10 08:07:54;;;;;;;13.60;5.67;;;;;;;22.14;88.16;100415.86;125121;1099;104204;-79
2022/09/10 08:10:26;;;;;;;11.97;4.93;;;;;;;22.33;88.76;100407.63;125283;1099;101730;-80
2022/09/10 08:12:58;;;;;;;12.30;5.10;;;;;;;22.53;88.28;100412.69;125361;1099;104207;-80
2022/09/10 08:15:29;;;;;;;12.70;5.47;;;;;;;22.64;87.67;100407.17;125247;1099;104169;-81
2022/09/10 08:18:02;;;;;;;9.40;4.58;;;;;;;22.77;87.38;100398.06;125154;1099;104226;-80
2022/09/10 08:20:34;;;;;;;9.70;4.33;;;;;;;22.85;87.39;100400.61;125215;1099;104175;-80
2022/09/10 08:23:05;;;;;;;10.23;4.53;;;;;;;23.00;86.70;100403.03;125347;1102;103356;-80
2022/09/10 08:25:39;;;;;;;11.30;5.00;;;;;;;23.00;86.58;100405.70;125967;1099;104173;-80
2022/09/10 08:28:10;;;;;;;8.30;4.57;;;;;;;22.95;86.44;100408.46;126076;1099;102268;-79
2022/09/10 08:30:42;;;;;;;9.43;4.60;;;;;;;22.85;85.90;100398.81;125968;1098;104166;-81
2022/09/10 08:33:17;;;;;;;10.93;4.83;;;;;;;22.81;85.77;100389.05;126124;1099;104321;-79
2022/09/10 08:35:52;;;;;;;9.73;4.77;;;;;;;22.76;85.78;100382.91;125579;1099;104223;-80
2022/09/10 08:38:25;;;;;;;9.33;4.37;;;;;;;22.77;85.97;100382.02;125956;1099;102208;-80
2022/09/10 08:40:59;;;;;;;9.77;4.63;;;;;;;22.82;85.81;100384.61;125216;1099;104647;-80
2022/09/10 08:43:37;;;;;;;5.67;3.92;;;;;;;22.83;85.60;100363.19;125904;1099;104159;-80
2022/09/10 08:46:20;;;;;;;7.67;3.93;;;;;;;22.85;84.21;100364.03;125885;1098;104316;-81
2022/09/10 08:48:58;;;;;;;9.47;4.13;;;;;;;22.87;84.56;100358.66;125876;1099;102845;-82
2022/09/10 08:51:36;;;;;;;10.37;3.93;;;;;;;22.92;84.57;100360.36;126680;1099;102994;-80
2022/09/10 08:54:14;;;;;;;7.77;3.90;;;;;;;23.01;83.70;100353.94;125932;1099;103625;-80
2022/09/10 08:56:47;;;;;;;7.87;3.57;;;;;;;23.08;83.72;100357.41;125912;1099;102628;-80
2022/09/10 08:59:25;;;;;;;5.47;3.22;;;;;;;23.17;83.21;100349.24;125966;1098;109408;-80
2022/09/10 09:02:00;;;;;;;7.07;3.40;;;;;;;23.19;81.69;100347.41;125676;1099;104322;-80
2022/09/10 09:04:43;;;;;;;7.57;3.40;;;;;;;23.29;82.12;100340.95;126062;1099;104110;-80
2022/09/10 09:07:18;;;;;;;7.63;2.90;;;;;;;23.45;80.60;100346.91;126734;1099;102168;-81
2022/09/10 09:09:52;;;;;;;8.50;2.80;;;;;;;23.61;80.27;100347.48;126138;1099;104253;-80
2022/09/10 09:12:32;;;;;;;8.63;2.93;;;;;;;23.69;79.71;100340.16;125850;1099;104217;-80
2022/09/10 09:15:12;;;;;;;7.13;2.83;;;;;;;23.78;79.99;100338.19;125851;1099;104204;-80
2022/09/10 09:18:00;;;;;;;9.53;3.07;;;;;;;23.80;78.14;100331.89;126082;1099;104175;-80
2022/09/10 09:20:45;;;;;;;9.93;2.93;;;;;;;23.93;78.12;100335.21;125831;1098;104837;-80
2022/09/10 09:23:25;;;;;;;5.43;2.57;;;;;;;24.11;77.64;100333.06;125769;1099;104166;-80
2022/09/10 09:25:59;;;;;;;9.83;2.63;;;;;;;24.28;77.68;100336.22;125893;1099;104255;-80
2022/09/10 09:28:39;;;;;;;8.43;2.30;;;;;;;24.31;74.00;100328.11;125842;1099;104156;-81
2022/09/10 09:31:16;;;;;;;10.47;3.03;;;;;;;24.36;74.21;100317.27;125886;1099;102870;-81
2022/09/10 09:33:50;;;;;;;9.80;3.40;;;;;;;24.47;71.96;100315.20;125827;1099;104454;-81
2022/09/10 09:36:30;;;;;;;9.23;3.00;;;;;;;24.66;73.47;100333.55;125915;1099;104150;-80
2022/09/10 09:39:04;;;;;;;4.70;2.30;;;;;;;24.82;71.43;100310.75;125958;1099;104146;-80
2022/09/10 09:41:47;;;;;;;6.92;2.37;;;;;;;25.04;69.48;100313.77;125916;1099;103577;-81
2022/09/10 09:44:22;;;;;;;10.32;2.92;;;;;;;25.09;68.68;100325.26;126681;1098;101911;-80
2022/09/10 09:46:55;;;;;;;8.57;2.53;;;;;;;24.99;66.59;100322.86;125841;1099;104339;-81
2022/09/10 09:49:28;;;;;;;5.25;1.72;;;;;;;24.96;64.41;100309.52;126530;1099;104344;-80
2022/09/10 09:52:02;;;;;;;7.95;2.47;;;;;;;24.96;66.38;100310.39;126767;1098;102835;-80
2022/09/10 09:54:34;;;;;;;2.80;1.80;;;;;;;24.93;64.99;100313.16;126446;1099;101647;-81
2022/09/10 09:57:19;;;;;;;4.37;2.10;;;;;;;24.91;65.67;100312.33;125882;1099;104163;-80
2022/09/10 09:59:54;;;;;;;5.90;2.27;;;;;;;24.86;63.56;100301.72;125761;1099;104337;-80
2022/09/10 10:02:29;;;;;;;6.17;2.40;;;;;;;24.82;63.62;100307.20;125814;1099;104187;-81
2022/09/10 10:05:08;;;;;;;5.23;2.30;;;;;;;24.84;63.45;100299.98;125788;1099;104204;-81
2022/09/10 10:07:39;;;;;;;5.27;2.20;;;;;;;24.85;61.32;100291.89;125933;1099;104613;-80
2022/09/10 10:10:25;;;;;;;4.93;2.10;;;;;;;25.05;62.80;100287.80;126661;1098;101926;-80
2022/09/10 10:12:57;;;;;;;8.93;2.30;;;;;;;25.26;63.37;100286.34;125814;1099;104083;-80
2022/09/10 10:15:40;;;;;;;6.57;2.23;;;;;;;25.35;62.49;100288.76;125898;1099;104162;-81
2022/09/10 10:18:31;;;;;;;5.90;2.27;;;;;;;25.46;62.24;100281.30;125828;1099;104181;-80
2022/09/10 10:21:16;;;;;;;7.17;2.07;;;;;;;25.64;58.76;100285.22;125772;1099;104300;-80
2022/09/10 10:23:50;;;;;;;4.83;2.20;;;;;;;25.88;60.88;100280.02;125991;1099;104265;-81
2022/09/10 10:26:29;;;;;;;9.17;2.60;;;;;;;26.00;60.70;100276.11;125821;1099;102417;-80
2022/09/10 10:29:05;;;;;;;5.63;2.33;;;;;;;26.04;60.55;100269.72;125898;1099;104156;-81
2022/09/10 10:31:43;;;;;;;5.70;2.20;;;;;;;25.99;59.01;100268.96;125824;1099;109480;-80
2022/09/10 10:34:39;;;;;;;4.67;2.00;;;;;;;25.95;58.84;100248.47;125936;1099;104210;-80
2022/09/10 10:37:17;;;;;;;3.63;1.97;;;;;;;25.87;58.40;100250.50;125876;1099;104174;-79
2022/09/10 10:40:06;;;;;;;5.83;2.13;;;;;;;25.83;58.46;100258.66;125924;1099;104159;-81
2022/09/10 10:42:42;;;;;;;6.37;2.50;;;;;;;25.75;58.85;100258.02;125983;1099;102267;-80
2022/09/10 10:45:29;;;;;;;4.87;2.60;;;;;;;25.77;58.25;100258.88;126261;1098;104272;-80
2022/09/10 10:48:11;;;;;;;3.57;2.33;;;;;;;25.76;58.54;100270.55;126003;1099;102293;-80
2022/09/10 10:50:57;;;;;;;5.00;2.20;;;;;;;25.71;58.22;100275.19;126177;1099;104274;-81
2022/09/10 10:54:02;;;;;;;6.83;2.50;;;;;;;25.63;57.56;100261.09;126468;1098;102299;-80
2022/09/10 10:56:39;;;;;;;9.43;2.70;;;;;;;25.60;57.74;100258.48;126476;1099;104551;-81
2022/09/10 10:59:30;;;;;;;8.47;2.73;;;;;;;25.67;57.54;100245.77;125850;1099;103245;-81
2022/09/10 11:02:13;;;;;;;6.25;2.40;;;;;;;25.75;56.41;100235.66;125923;1099;104179;-81
2022/09/10 11:04:49;;;;;;;6.35;2.52;;;;;;;25.75;56.08;100224.91;125402;1099;104319;-81
2022/09/10 11:07:26;;;;;;;9.07;2.20;;;;;;;25.85;56.24;100229.05;125845;1099;102244;-81
2022/09/10 11:10:04;;;;;;;9.73;2.50;;;;;;;25.91;55.74;100225.30;125938;1099;105409;-80
2022/09/10 11:12:41;;;;;;;3.57;2.37;;;;;;;25.93;55.32;100220.73;125788;1099;113295;-81
2022/09/10 11:15:36;;;;;;;6.00;2.60;;;;;;;25.94;55.46;100227.88;125855;1099;104268;-80
2022/09/10 11:18:20;;;;;;;6.10;2.50;;;;;;;25.88;55.15;100226.26;125960;1099;102411;-81
2022/09/10 11:21:01;;;;;;;7.97;2.47;;;;;;;25.88;55.56;100218.20;126489;1098;101800;-80
2022/09/10 11:23:38;;;;;;;5.23;2.70;;;;;;;25.84;55.84;100214.73;125245;1099;102800;-80
2022/09/10 11:26:16;;;;;;;5.47;2.70;;;;;;;25.83;55.42;100207.59;126778;1098;104252;-80
2022/09/10 11:28:58;;;;;;;8.27;2.80;;;;;;;25.82;55.32;100203.17;125881;1097;102281;-81
2022/09/10 11:31:35;;;;;;;7.73;2.80;;;;;;;25.89;54.95;100201.16;125760;1099;104277;-80
2022/09/10 11:34:15;;;;;;;7.17;2.67;;;;;;;26.06;55.06;100189.88;126687;1098;101931;-80
2022/09/10 11:36:53;;;;;;;5.77;2.40;;;;;;;26.15;54.98;100188.70;125941;1099;103258;-80
2022/09/10 11:39:31;;;;;;;9.50;2.30;;;;;;;26.23;55.12;100183.94;125897;1099;104150;-81
2022/09/10 11:42:13;;;;;;;5.23;2.60;;;;;;;26.22;54.11;100182.17;126656;1099;104156;-81